Time;durP1;ratioP1;P1;durP2;ratioP2;P2;SDS_P1;SDS_P2;PMS_P1;PMS_P2;Temp;Humidity;BMP_temperature;BMP_pressure;BME280_temperature;BME280_humidity;BME280_pressure;Samples;Min_cycle;Max_cycle;Signal;HPM_P1;HPM_P2
2023/03/20 00:02:18;;;;;;;7.80;7.10;;;;;;;;;;5099002;28;20537;-65
2023/03/20 00:04:45;;;;;;;8.73;7.20;;;;;;;;;;5099143;28;20558;-65
2023/03/20 00:07:12;;;;;;;7.47;6.80;;;;;;;;;;5099047;28;20457;-64
2023/03/20 00:09:39;;;;;;;6.83;6.23;;;;;;;;;;5098853;28;20446;-65
2023/03/20 00:12:06;;;;;;;6.73;6.13;;;;;;;;;;5098841;28;20478;-65
2023/03/20 00:14:34;;;;;;;6.83;5.83;;;;;;;;;;5098821;28;20905;-65
2023/03/20 00:17:01;;;;;;;7.70;6.60;;;;;;;;;;5098875;28;20474;-65
2023/03/20 00:19:30;;;;;;;9.17;6.73;;;;;;;;;;5098900;28;20605;-65
2023/03/20 00:21:57;;;;;;;6.57;5.93;;;;;;;;;;5099022;28;20958;-64
2023/03/20 00:24:24;;;;;;;7.10;6.63;;;;;;;;;;5098888;28;20447;-65
2023/03/20 00:26:52;;;;;;;7.47;6.77;;;;;;;;;;5099008;28;20453;-65
2023/03/20 00:29:21;;;;;;;6.67;5.97;;;;;;;;;;5098789;28;20945;-65
2023/03/20 00:31:48;;;;;;;7.30;6.60;;;;;;;;;;5098820;28;20512;-65
2023/03/20 00:34:16;;;;;;;6.60;5.60;;;;;;;;;;5098886;28;20482;-65
2023/03/20 00:36:44;;;;;;;6.93;6.30;;;;;;;;;;5098818;28;20447;-65
2023/03/20 00:39:11;;;;;;;10.20;5.80;;;;;;;;;;5098638;28;20447;-65
2023/03/20 00:41:42;;;;;;;8.47;6.40;;;;;;;;;;5098591;28;20476;-65
2023/03/20 00:44:15;;;;;;;8.03;6.93;;;;;;;;;;5096186;28;20497;-65
2023/03/20 00:46:43;;;;;;;7.77;7.07;;;;;;;;;;5095440;28;20549;-64
2023/03/20 00:49:10;;;;;;;7.03;6.40;;;;;;;;;;5095457;28;20546;-65
2023/03/20 00:51:38;;;;;;;8.07;7.23;;;;;;;;;;5095160;28;20558;-65
2023/03/20 00:54:12;;;;;;;6.53;5.93;;;;;;;;;;5095359;28;20451;-65
2023/03/20 00:56:42;;;;;;;6.70;6.10;;;;;;;;;;5095208;28;20985;-65
2023/03/20 00:59:14;;;;;;;6.60;6.00;;;;;;;;;;5095359;28;20914;-65
2023/03/20 01:01:41;;;;;;;7.33;6.60;;;;;;;;;;5095136;28;20455;-65
2023/03/20 01:04:10;;;;;;;6.50;5.77;;;;;;;;;;5095016;28;20483;-65
2023/03/20 01:06:37;;;;;;;7.93;6.27;;;;;;;;;;5094926;28;20480;-65
2023/03/20 01:09:04;;;;;;;7.10;5.57;;;;;;;;;;5095141;28;20451;-65
2023/03/20 01:11:32;;;;;;;6.63;6.03;;;;;;;;;;5094750;28;21036;-65
2023/03/20 01:13:59;;;;;;;5.33;4.80;;;;;;;;;;5095019;28;20610;-65
2023/03/20 01:16:27;;;;;;;6.23;5.73;;;;;;;;;;5094665;28;20560;-65
2023/03/20 01:18:54;;;;;;;6.00;5.60;;;;;;;;;;5095076;28;20500;-65
2023/03/20 01:21:21;;;;;;;6.37;5.97;;;;;;;;;;5094696;28;20504;-65
2023/03/20 01:23:49;;;;;;;6.80;6.10;;;;;;;;;;5095029;28;20754;-65
2023/03/20 01:26:21;;;;;;;6.23;5.63;;;;;;;;;;5094802;28;20462;-64
2023/03/20 01:28:49;;;;;;;10.50;5.27;;;;;;;;;;5094678;28;20452;-65
2023/03/20 01:31:17;;;;;;;6.73;6.23;;;;;;;;;;5094466;28;20926;-64
2023/03/20 01:33:44;;;;;;;5.80;5.20;;;;;;;;;;5094296;28;20906;-65
2023/03/20 01:36:11;;;;;;;7.93;5.80;;;;;;;;;;5094668;28;20856;-65
2023/03/20 01:38:39;;;;;;;6.10;5.60;;;;;;;;;;5094516;28;20479;-65
2023/03/20 01:41:07;;;;;;;6.73;6.17;;;;;;;;;;5094399;28;20494;-65
2023/03/20 01:43:34;;;;;;;6.60;6.00;;;;;;;;;;5094367;28;20562;-65
2023/03/20 01:46:05;;;;;;;6.30;5.70;;;;;;;;;;5094372;28;20447;-65
2023/03/20 01:48:37;;;;;;;6.20;5.70;;;;;;;;;;5094282;28;20439;-65
2023/03/20 01:51:04;;;;;;;6.23;5.73;;;;;;;;;;5094298;28;20538;-65
2023/03/20 01:53:31;;;;;;;7.03;6.53;;;;;;;;;;5094059;28;21067;-65
2023/03/20 01:55:59;;;;;;;6.93;6.33;;;;;;;;;;5093997;28;20807;-64
2023/03/20 01:58:28;;;;;;;7.57;6.80;;;;;;;;;;5094092;28;20974;-64
2023/03/20 02:00:56;;;;;;;6.40;5.80;;;;;;;;;;5093833;28;20542;-64
2023/03/20 02:03:24;;;;;;;6.77;6.27;;;;;;;;;;5094089;28;20454;-65
2023/03/20 02:05:52;;;;;;;7.13;6.53;;;;;;;;;;5094088;28;20470;-65
2023/03/20 02:08:23;;;;;;;7.70;7.10;;;;;;;;;;5093866;28;20453;-65
2023/03/20 02:10:50;;;;;;;6.60;5.90;;;;;;;;;;5093819;28;20455;-65
2023/03/20 02:13:17;;;;;;;7.03;6.30;;;;;;;;;;5093638;28;20570;-65
2023/03/20 02:15:55;;;;;;;7.17;6.10;;;;;;;;;;5093784;28;20542;-65
2023/03/20 02:18:22;;;;;;;6.50;5.90;;;;;;;;;;5093503;28;20562;-65
2023/03/20 02:21:01;;;;;;;6.80;6.23;;;;;;;;;;5093620;28;20529;-65
2023/03/20 02:23:43;;;;;;;6.53;6.00;;;;;;;;;;5093559;28;20450;-65
2023/03/20 02:26:16;;;;;;;6.37;5.80;;;;;;;;;;5093796;28;20474;-65
2023/03/20 02:29:02;;;;;;;6.17;5.53;;;;;;;;;;5093679;28;20542;-65
2023/03/20 02:31:46;;;;;;;6.27;5.67;;;;;;;;;;5093341;28;20451;-65
2023/03/20 02:34:41;;;;;;;7.47;6.77;;;;;;;;;;5093394;28;20453;-64
2023/03/20 02:37:37;;;;;;;6.30;5.80;;;;;;;;;;5093424;28;20453;-65
2023/03/20 02:40:09;;;;;;;7.60;6.33;;;;;;;;;;5050721;28;20500;-65
2023/03/20 02:42:41;;;;;;;9.50;5.90;;;;;;;;;;5084443;28;20490;-65
2023/03/20 02:45:13;;;;;;;6.87;6.27;;;;;;;;;;5093375;28;20538;-65
2023/03/20 02:47:42;;;;;;;7.00;6.40;;;;;;;;;;5093286;28;20891;-65
2023/03/20 02:50:14;;;;;;;8.63;7.53;;;;;;;;;;5093112;28;20442;-65
2023/03/20 02:52:44;;;;;;;7.60;6.90;;;;;;;;;;5093318;28;20470;-65
2023/03/20 02:55:16;;;;;;;6.90;6.30;;;;;;;;;;5093034;28;20454;-65
2023/03/20 02:57:46;;;;;;;7.30;6.70;;;;;;;;;;5093177;28;20478;-65
2023/03/20 03:00:14;;;;;;;7.10;6.40;;;;;;;;;;5092984;28;20514;-65
2023/03/20 03:02:44;;;;;;;7.70;7.00;;;;;;;;;;5093232;28;20539;-65
2023/03/20 03:05:13;;;;;;;7.33;6.50;;;;;;;;;;5092942;28;20516;-65
2023/03/20 03:07:42;;;;;;;7.43;6.83;;;;;;;;;;5092293;28;20534;-65
2023/03/20 03:10:11;;;;;;;7.93;7.27;;;;;;;;;;5092778;28;20568;-65
2023/03/20 03:12:42;;;;;;;7.90;7.10;;;;;;;;;;5092796;28;20528;-65
2023/03/20 03:15:14;;;;;;;7.20;6.53;;;;;;;;;;5092681;28;20995;-64
2023/03/20 03:17:43;;;;;;;8.10;7.40;;;;;;;;;;5092761;28;20570;-65
2023/03/20 03:20:15;;;;;;;6.83;6.30;;;;;;;;;;5092670;28;20538;-65
2023/03/20 03:22:42;;;;;;;8.13;7.43;;;;;;;;;;5092858;28;20479;-65
2023/03/20 03:25:11;;;;;;;10.47;7.20;;;;;;;;;;5092746;28;20489;-65
2023/03/20 03:27:41;;;;;;;9.07;7.03;;;;;;;;;;5092587;28;20453;-65
2023/03/20 03:30:11;;;;;;;9.03;7.43;;;;;;;;;;5092664;28;20456;-65
2023/03/20 03:32:42;;;;;;;8.23;7.40;;;;;;;;;;5092247;28;20508;-65
2023/03/20 03:35:14;;;;;;;8.00;7.30;;;;;;;;;;5092733;28;20822;-65
2023/03/20 03:37:43;;;;;;;7.90;7.10;;;;;;;;;;5092664;28;20447;-65
2023/03/20 03:40:16;;;;;;;7.33;6.63;;;;;;;;;;5092394;28;20451;-64
2023/03/20 03:42:50;;;;;;;8.37;7.57;;;;;;;;;;5092430;28;20541;-65
2023/03/20 03:45:19;;;;;;;10.57;8.20;;;;;;;;;;5092677;28;20802;-65
2023/03/20 03:47:49;;;;;;;9.00;8.30;;;;;;;;;;5092485;28;20459;-64
2023/03/20 03:50:17;;;;;;;10.30;8.83;;;;;;;;;;5092291;28;20447;-64
2023/03/20 03:52:47;;;;;;;8.80;8.10;;;;;;;;;;5092188;28;20473;-65
2023/03/20 03:55:15;;;;;;;8.00;7.33;;;;;;;;;;5092330;28;20533;-65
2023/03/20 03:57:43;;;;;;;8.43;7.63;;;;;;;;;;5092106;28;20479;-65
2023/03/20 04:00:13;;;;;;;8.63;7.93;;;;;;;;;;5092263;28;20502;-64
2023/03/20 04:02:40;;;;;;;8.70;7.90;;;;;;;;;;5092379;28;20451;-65
2023/03/20 04:05:07;;;;;;;9.17;8.27;;;;;;;;;;5092279;28;20533;-65
2023/03/20 04:07:35;;;;;;;8.33;7.73;;;;;;;;;;5092103;28;20446;-65
2023/03/20 04:10:02;;;;;;;7.90;7.10;;;;;;;;;;5092046;28;20447;-65
2023/03/20 04:12:33;;;;;;;9.23;8.33;;;;;;;;;;5091983;28;21006;-65
2023/03/20 04:15:00;;;;;;;7.93;7.10;;;;;;;;;;5092297;28;20499;-65
2023/03/20 04:17:28;;;;;;;8.20;7.53;;;;;;;;;;5091996;28;20570;-65
2023/03/20 04:19:55;;;;;;;10.13;9.07;;;;;;;;;;5093868;28;20447;-65
2023/03/20 04:22:22;;;;;;;9.00;8.20;;;;;;;;;;5096319;28;20628;-65
2023/03/20 04:24:49;;;;;;;9.37;8.57;;;;;;;;;;5095940;28;20997;-65
2023/03/20 04:27:16;;;;;;;9.63;8.77;;;;;;;;;;5096054;28;20487;-65
2023/03/20 04:29:44;;;;;;;9.00;8.20;;;;;;;;;;5095826;28;20561;-65
2023/03/20 04:32:11;;;;;;;10.60;9.63;;;;;;;;;;5095847;28;20453;-65
2023/03/20 04:34:39;;;;;;;10.47;9.33;;;;;;;;;;5095803;28;21048;-65
2023/03/20 04:37:07;;;;;;;9.27;8.37;;;;;;;;;;5095543;28;20858;-65
2023/03/20 04:39:35;;;;;;;9.27;8.30;;;;;;;;;;5095634;28;20443;-64
2023/03/20 04:42:02;;;;;;;10.33;8.03;;;;;;;;;;5095588;28;20447;-64
2023/03/20 04:44:29;;;;;;;9.17;8.23;;;;;;;;;;5095497;28;20450;-65
2023/03/20 04:46:56;;;;;;;8.80;8.10;;;;;;;;;;5095528;28;20537;-65
2023/03/20 04:49:23;;;;;;;9.13;8.33;;;;;;;;;;5095330;28;20442;-65
2023/03/20 04:51:51;;;;;;;9.23;8.23;;;;;;;;;;5095305;28;20534;-65
2023/03/20 04:54:18;;;;;;;8.40;7.70;;;;;;;;;;5095414;28;20844;-65
2023/03/20 04:56:45;;;;;;;8.00;7.30;;;;;;;;;;5095402;28;20534;-65
2023/03/20 04:59:12;;;;;;;8.70;7.80;;;;;;;;;;5095128;28;21029;-65
2023/03/20 05:01:39;;;;;;;9.40;8.20;;;;;;;;;;5095005;28;20451;-65
2023/03/20 05:04:07;;;;;;;8.20;7.57;;;;;;;;;;5095039;28;20485;-65
2023/03/20 05:06:34;;;;;;;8.10;7.40;;;;;;;;;;5095420;28;20478;-64
2023/03/20 05:09:02;;;;;;;8.40;7.70;;;;;;;;;;5094987;28;20467;-65
2023/03/20 05:11:29;;;;;;;7.70;7.00;;;;;;;;;;5094990;28;20473;-64
2023/03/20 05:13:56;;;;;;;8.27;7.50;;;;;;;;;;5094893;28;20581;-65
2023/03/20 05:16:23;;;;;;;7.70;7.00;;;;;;;;;;5094692;28;20455;-65
2023/03/20 05:18:50;;;;;;;8.43;7.47;;;;;;;;;;5094800;28;20809;-65
2023/03/20 05:21:18;;;;;;;8.43;7.73;;;;;;;;;;5094815;28;20737;-65
2023/03/20 05:23:45;;;;;;;7.63;6.93;;;;;;;;;;5094906;28;20447;-65
2023/03/20 05:26:13;;;;;;;9.00;8.10;;;;;;;;;;5094660;28;20938;-65
2023/03/20 05:28:40;;;;;;;9.13;8.23;;;;;;;;;;5094774;28;20801;-64
2023/03/20 05:31:07;;;;;;;7.70;7.10;;;;;;;;;;5093895;28;20994;-65
2023/03/20 05:33:34;;;;;;;7.97;7.17;;;;;;;;;;5094421;28;20523;-65
2023/03/20 05:36:01;;;;;;;11.13;7.80;;;;;;;;;;5094871;28;20497;-65
2023/03/20 05:38:28;;;;;;;8.23;7.53;;;;;;;;;;5094471;28;20492;-65
2023/03/20 05:40:58;;;;;;;8.60;7.90;;;;;;;;;;5094320;28;20453;-65
2023/03/20 05:43:27;;;;;;;8.13;7.33;;;;;;;;;;5094357;28;20490;-65
2023/03/20 05:45:55;;;;;;;8.90;8.10;;;;;;;;;;5094322;28;20486;-65
2023/03/20 05:48:22;;;;;;;8.23;7.53;;;;;;;;;;5094554;28;20791;-65
2023/03/20 05:50:49;;;;;;;7.83;7.23;;;;;;;;;;5094262;28;20443;-65
2023/03/20 05:53:16;;;;;;;11.27;8.43;;;;;;;;;;5094213;28;20463;-64
2023/03/20 05:55:43;;;;;;;8.80;7.33;;;;;;;;;;5094157;28;20846;-65
2023/03/20 05:58:10;;;;;;;8.63;7.97;;;;;;;;;;5094050;28;20449;-64
2023/03/20 06:00:38;;;;;;;8.03;7.43;;;;;;;;;;5094100;28;20451;-65
2023/03/20 06:03:06;;;;;;;8.63;7.87;;;;;;;;;;5094160;28;20486;-65
2023/03/20 06:05:33;;;;;;;8.93;8.13;;;;;;;;;;5094005;28;20462;-65
2023/03/20 06:08:00;;;;;;;9.30;8.40;;;;;;;;;;5093735;28;20980;-65
2023/03/20 06:10:28;;;;;;;8.00;7.40;;;;;;;;;;5093785;28;20451;-64
2023/03/20 06:12:56;;;;;;;8.90;8.13;;;;;;;;;;5093771;28;20455;-65
2023/03/20 06:15:23;;;;;;;9.13;8.20;;;;;;;;;;5093810;28;20489;-65
2023/03/20 06:17:51;;;;;;;7.77;7.03;;;;;;;;;;5093681;28;20536;-65
2023/03/20 06:20:18;;;;;;;9.17;8.37;;;;;;;;;;5093504;28;20879;-65
2023/03/20 06:22:45;;;;;;;11.40;8.37;;;;;;;;;;5093516;28;20838;-64
2023/03/20 06:25:13;;;;;;;9.37;8.47;;;;;;;;;;5093325;28;20542;-64
2023/03/20 06:27:39;;;;;;;8.70;7.80;;;;;;;;;;5093228;28;20439;-64
2023/03/20 06:30:07;;;;;;;12.13;11.03;;;;;;;;;;5092946;28;20971;-64
2023/03/20 06:32:35;;;;;;;8.60;7.90;;;;;;;;;;5093379;28;20449;-64
2023/03/20 06:35:05;;;;;;;9.20;8.00;;;;;;;;;;5093194;28;20489;-64
2023/03/20 06:37:32;;;;;;;8.13;7.33;;;;;;;;;;5093117;28;20817;-64
2023/03/20 06:39:59;;;;;;;12.13;8.47;;;;;;;;;;5092846;28;20913;-65
2023/03/20 06:42:26;;;;;;;7.43;6.80;;;;;;;;;;5092374;28;20520;-64
2023/03/20 06:44:53;;;;;;;8.70;7.73;;;;;;;;;;5093186;28;20457;-64
2023/03/20 06:47:20;;;;;;;8.60;7.90;;;;;;;;;;5093063;28;20544;-64
2023/03/20 06:49:47;;;;;;;10.13;9.23;;;;;;;;;;5093013;28;20504;-65
2023/03/20 06:52:17;;;;;;;9.67;8.23;;;;;;;;;;5093038;28;20531;-64
2023/03/20 06:54:44;;;;;;;9.53;8.70;;;;;;;;;;5092760;28;20559;-64
2023/03/20 06:57:11;;;;;;;9.73;8.80;;;;;;;;;;5093001;28;20447;-64
2023/03/20 06:59:38;;;;;;;9.87;8.97;;;;;;;;;;5092867;28;20533;-65
2023/03/20 07:02:06;;;;;;;10.97;9.90;;;;;;;;;;5092808;28;20449;-66
2023/03/20 07:04:32;;;;;;;10.53;9.43;;;;;;;;;;5092791;28;20933;-64
2023/03/20 07:07:00;;;;;;;12.03;10.60;;;;;;;;;;5092537;28;20457;-64
2023/03/20 07:09:28;;;;;;;12.23;11.03;;;;;;;;;;5092316;28;20443;-64
2023/03/20 07:11:55;;;;;;;19.90;17.07;;;;;;;;;;5092577;28;20538;-65
2023/03/20 07:14:22;;;;;;;27.87;22.60;;;;;;;;;;5092529;28;20568;-64
2023/03/20 07:16:49;;;;;;;23.10;20.70;;;;;;;;;;5092314;28;20494;-64
2023/03/20 07:19:16;;;;;;;24.50;21.90;;;;;;;;;;5092455;28;20447;-64
2023/03/20 07:21:43;;;;;;;33.47;24.87;;;;;;;;;;5092428;28;20451;-64
2023/03/20 07:24:10;;;;;;;28.43;25.23;;;;;;;;;;5092704;28;20546;-65
2023/03/20 07:26:40;;;;;;;31.37;25.40;;;;;;;;;;5092775;28;20443;-64
2023/03/20 07:29:07;;;;;;;28.53;24.40;;;;;;;;;;5092741;28;20447;-64
2023/03/20 07:31:34;;;;;;;27.43;23.23;;;;;;;;;;5092419;28;20504;-64
2023/03/20 07:34:01;;;;;;;25.47;22.50;;;;;;;;;;5092057;28;20554;-64
2023/03/20 07:36:28;;;;;;;25.90;22.60;;;;;;;;;;5092135;28;20448;-64
2023/03/20 07:38:55;;;;;;;27.20;24.30;;;;;;;;;;5092254;28;20944;-64
2023/03/20 07:41:22;;;;;;;30.60;27.30;;;;;;;;;;5092370;28;20510;-64
2023/03/20 07:43:50;;;;;;;29.80;25.47;;;;;;;;;;5092392;28;20462;-64
2023/03/20 07:46:17;;;;;;;31.50;25.63;;;;;;;;;;5092250;28;20455;-64
2023/03/20 07:48:45;;;;;;;30.60;25.00;;;;;;;;;;5092191;28;20443;-64
2023/03/20 07:51:12;;;;;;;33.53;28.43;;;;;;;;;;5092309;28;20821;-64
2023/03/20 07:53:39;;;;;;;30.53;26.90;;;;;;;;;;5093857;28;20454;-64
2023/03/20 07:56:06;;;;;;;35.90;25.13;;;;;;;;;;5096559;28;20577;-64
2023/03/20 07:58:33;;;;;;;35.77;25.33;;;;;;;;;;5096398;28;20543;-64
2023/03/20 08:01:03;;;;;;;35.90;29.10;;;;;;;;;;5096227;28;20530;-64
2023/03/20 08:03:30;;;;;;;36.67;30.17;;;;;;;;;;5096150;28;20542;-64
2023/03/20 08:05:57;;;;;;;44.77;33.70;;;;;;;;;;5096553;28;20473;-64
2023/03/20 08:08:24;;;;;;;44.50;32.80;;;;;;;;;;5095966;28;20894;-64
2023/03/20 08:10:51;;;;;;;37.37;28.47;;;;;;;;;;5096031;28;20531;-64
2023/03/20 08:13:18;;;;;;;38.50;28.57;;;;;;;;;;5095968;28;20447;-64
2023/03/20 08:15:46;;;;;;;35.40;28.47;;;;;;;;;;5095747;28;20899;-64
2023/03/20 08:18:15;;;;;;;39.57;30.63;;;;;;;;;;5095870;28;20481;-64
2023/03/20 08:20:41;;;;;;;37.00;28.57;;;;;;;;;;5095843;28;20450;-65
2023/03/20 08:23:08;;;;;;;40.47;30.07;;;;;;;;;;5095902;28;20534;-63
2023/03/20 08:25:35;;;;;;;42.90;32.00;;;;;;;;;;5095802;28;20541;-69
2023/03/20 08:28:02;;;;;;;39.20;30.27;;;;;;;;;;5095339;28;20533;-60
2023/03/20 08:30:29;;;;;;;41.43;31.57;;;;;;;;;;5095508;28;20461;-60
2023/03/20 08:32:57;;;;;;;39.27;30.43;;;;;;;;;;5095810;28;20448;-61
2023/03/20 08:35:26;;;;;;;40.07;30.20;;;;;;;;;;5095740;28;20485;-66
2023/03/20 08:37:53;;;;;;;39.77;29.83;;;;;;;;;;5095817;28;20493;-67
2023/03/20 08:40:21;;;;;;;43.50;30.60;;;;;;;;;;5095325;28;20945;-62
2023/03/20 08:42:48;;;;;;;39.80;30.37;;;;;;;;;;5095361;28;20938;-63
2023/03/20 08:45:16;;;;;;;40.80;28.97;;;;;;;;;;5095526;28;20450;-69
2023/03/20 08:47:43;;;;;;;33.60;24.73;;;;;;;;;;5095538;28;20459;-64
2023/03/20 08:50:10;;;;;;;36.43;25.30;;;;;;;;;;5095165;28;21016;-70
2023/03/20 08:52:42;;;;;;;34.73;24.27;;;;;;;;;;5095264;28;20941;-66
2023/03/20 08:55:09;;;;;;;34.23;23.37;;;;;;;;;;5095021;28;20474;-66
2023/03/20 08:57:37;;;;;;;34.67;25.23;;;;;;;;;;5095042;28;20542;-65
2023/03/20 09:00:05;;;;;;;38.17;25.40;;;;;;;;;;5094982;28;20454;-67
2023/03/20 09:02:32;;;;;;;35.87;25.30;;;;;;;;;;5095110;28;20496;-62
2023/03/20 09:04:58;;;;;;;34.90;23.67;;;;;;;;;;5094053;28;20448;-73
2023/03/20 09:07:25;;;;;;;33.60;23.90;;;;;;;;;;5095458;28;20443;-80
2023/03/20 09:09:54;;;;;;;31.03;21.20;;;;;;;;;;5094967;28;20528;-71
2023/03/20 09:12:21;;;;;;;31.30;21.40;;;;;;;;;;5095137;28;20801;-68
2023/03/20 09:14:47;;;;;;;25.40;19.30;;;;;;;;;;5095029;28;20496;-71
2023/03/20 09:17:14;;;;;;;26.03;19.20;;;;;;;;;;5094906;28;20479;-63
2023/03/20 09:19:43;;;;;;;25.30;18.43;;;;;;;;;;5095022;28;20443;-66
2023/03/20 09:22:11;;;;;;;25.57;17.20;;;;;;;;;;5094571;28;20473;-61
2023/03/20 09:24:38;;;;;;;28.83;18.50;;;;;;;;;;5094657;28;20455;-61
2023/03/20 09:27:06;;;;;;;27.03;16.10;;;;;;;;;;5094772;28;20460;-67
2023/03/20 09:29:33;;;;;;;22.33;16.57;;;;;;;;;;5094851;28;20783;-67
2023/03/20 09:32:00;;;;;;;24.70;15.70;;;;;;;;;;5094377;28;20451;-59
2023/03/20 09:34:28;;;;;;;21.93;15.27;;;;;;;;;;5094531;28;20478;-66
2023/03/20 09:36:55;;;;;;;22.70;14.57;;;;;;;;;;5094477;28;20446;-71
2023/03/20 09:39:22;;;;;;;21.70;14.07;;;;;;;;;;5094397;28;20874;-71
2023/03/20 09:41:49;;;;;;;17.43;13.17;;;;;;;;;;5094505;28;20542;-75
2023/03/20 09:44:22;;;;;;;20.73;14.70;;;;;;;;;;5094913;28;20500;-79
2023/03/20 09:46:57;;;;;;;20.50;13.90;;;;;;;;;;5094571;28;20457;-78
2023/03/20 09:49:28;;;;;;;16.30;12.37;;;;;;;;;;5094358;28;20556;-78
2023/03/20 09:51:56;;;;;;;21.70;13.10;;;;;;;;;;5094368;28;20432;-62
2023/03/20 09:54:25;;;;;;;17.90;12.33;;;;;;;;;;5094107;28;20554;-65
2023/03/20 09:56:52;;;;;;;20.00;13.47;;;;;;;;;;5094182;28;20451;-65
2023/03/20 09:59:21;;;;;;;17.83;12.70;;;;;;;;;;5094010;28;20451;-69
2023/03/20 10:01:50;;;;;;;18.40;12.10;;;;;;;;;;5094048;28;20537;-75
2023/03/20 10:04:18;;;;;;;20.93;13.37;;;;;;;;;;5094049;28;20534;-67
2023/03/20 10:06:47;;;;;;;20.43;13.43;;;;;;;;;;5094231;28;20914;-77
2023/03/20 10:09:16;;;;;;;15.00;10.90;;;;;;;;;;5093743;28;20450;-63
2023/03/20 10:11:51;;;;;;;14.20;11.43;;;;;;;;;;5093547;28;20442;-67
2023/03/20 10:14:23;;;;;;;24.73;12.00;;;;;;;;;;5093663;28;20485;-67
2023/03/20 10:17:01;;;;;;;15.23;10.80;;;;;;;;;;5093465;28;20481;-69
2023/03/20 10:19:29;;;;;;;18.07;11.53;;;;;;;;;;5093706;28;20477;-69
2023/03/20 10:21:58;;;;;;;14.93;10.93;;;;;;;;;;5093846;28;20447;-67
2023/03/20 10:24:29;;;;;;;16.37;11.37;;;;;;;;;;5093618;28;20444;-64
2023/03/20 10:26:58;;;;;;;16.00;10.57;;;;;;;;;;5093813;28;20886;-78
2023/03/20 10:29:30;;;;;;;13.93;10.30;;;;;;;;;;5093857;28;20457;-69
2023/03/20 10:32:03;;;;;;;15.20;10.20;;;;;;;;;;5093747;28;20481;-69
2023/03/20 10:34:45;;;;;;;11.53;9.47;;;;;;;;;;5093472;28;20447;-73
2023/03/20 10:37:18;;;;;;;20.23;10.37;;;;;;;;;;5092263;28;20629;-73
2023/03/20 10:39:51;;;;;;;12.23;8.90;;;;;;;;;;5093436;28;20534;-61
2023/03/20 10:42:21;;;;;;;14.60;9.70;;;;;;;;;;5093205;28;21110;-62
2023/03/20 10:44:50;;;;;;;18.13;10.23;;;;;;;;;;5093351;28;20500;-62
2023/03/20 10:47:21;;;;;;;11.27;9.83;;;;;;;;;;5093149;28;20447;-62
2023/03/20 10:49:49;;;;;;;13.30;9.90;;;;;;;;;;5093085;28;20810;-62
2023/03/20 10:52:17;;;;;;;16.50;11.53;;;;;;;;;;5093583;28;20626;-62
2023/03/20 10:54:46;;;;;;;13.00;9.90;;;;;;;;;;5092942;28;20451;-62
2023/03/20 10:57:15;;;;;;;9.60;8.30;;;;;;;;;;5093091;28;20962;-68
2023/03/20 10:59:44;;;;;;;13.80;10.20;;;;;;;;;;5092860;28;20537;-68
2023/03/20 11:02:11;;;;;;;11.17;8.43;;;;;;;;;;5092904;28;20538;-61
2023/03/20 11:04:39;;;;;;;13.23;9.17;;;;;;;;;;5093133;28;20449;-66
2023/03/20 11:07:12;;;;;;;10.00;8.03;;;;;;;;;;5092864;28;20505;-67
2023/03/20 11:09:39;;;;;;;9.83;8.10;;;;;;;;;;5092698;28;20534;-63
2023/03/20 11:12:06;;;;;;;8.83;6.90;;;;;;;;;;5092750;28;20508;-64
2023/03/20 11:14:34;;;;;;;7.70;6.90;;;;;;;;;;5092570;28;20534;-60
2023/03/20 11:17:03;;;;;;;8.37;6.97;;;;;;;;;;5092496;28;20494;-58
2023/03/20 11:19:33;;;;;;;8.30;7.40;;;;;;;;;;5092698;28;20817;-65
2023/03/20 11:22:06;;;;;;;9.67;7.50;;;;;;;;;;5092661;28;20534;-63
2023/03/20 11:24:36;;;;;;;7.13;6.43;;;;;;;;;;5092678;28;20527;-63
2023/03/20 11:27:07;;;;;;;7.00;6.30;;;;;;;;;;5092570;28;20451;-73
2023/03/20 11:29:34;;;;;;;9.23;6.70;;;;;;;;;;5091789;28;20542;-70
2023/03/20 11:32:06;;;;;;;10.43;7.00;;;;;;;;;;5092529;28;20593;-62
2023/03/20 11:34:36;;;;;;;8.20;5.93;;;;;;;;;;5092862;28;20451;-65
2023/03/20 11:37:07;;;;;;;7.90;7.00;;;;;;;;;;5092407;28;20486;-72
2023/03/20 11:39:36;;;;;;;8.30;5.73;;;;;;;;;;5092503;28;20451;-74
2023/03/20 11:42:03;;;;;;;10.90;6.50;;;;;;;;;;5092708;28;20489;-76
2023/03/20 11:44:31;;;;;;;8.03;6.30;;;;;;;;;;5093300;28;20940;-73
2023/03/20 11:47:00;;;;;;;10.63;6.60;;;;;;;;;;5092741;28;20458;-64
2023/03/20 11:49:28;;;;;;;8.77;6.73;;;;;;;;;;5092706;28;20451;-68
2023/03/20 11:51:56;;;;;;;6.70;5.90;;;;;;;;;;5092783;28;20507;-67
2023/03/20 11:54:25;;;;;;;7.53;5.87;;;;;;;;;;5092483;28;20447;-67
2023/03/20 11:56:53;;;;;;;8.00;6.10;;;;;;;;;;5092350;28;20514;-71
2023/03/20 11:59:21;;;;;;;8.30;5.47;;;;;;;;;;5092517;28;20497;-72
2023/03/20 12:01:50;;;;;;;7.30;6.20;;;;;;;;;;5092517;28;20451;-70
2023/03/20 12:04:17;;;;;;;7.90;6.30;;;;;;;;;;5092582;28;20451;-63
2023/03/20 12:06:47;;;;;;;7.37;6.23;;;;;;;;;;5092452;28;20455;-71
2023/03/20 12:09:22;;;;;;;7.83;5.93;;;;;;;;;;5092224;28;20543;-69
2023/03/20 12:11:54;;;;;;;6.43;5.70;;;;;;;;;;5093236;28;20866;-68
2023/03/20 12:14:24;;;;;;;7.60;5.60;;;;;;;;;;5092818;28;20448;-76
2023/03/20 12:16:54;;;;;;;7.47;6.23;;;;;;;;;;5092373;28;20578;-83
2023/03/20 12:19:23;;;;;;;10.10;6.87;;;;;;;;;;5092033;28;20465;-74
2023/03/20 12:21:52;;;;;;;11.00;7.00;;;;;;;;;;5092224;28;20486;-72
2023/03/20 12:24:26;;;;;;;9.47;7.00;;;;;;;;;;5092471;28;20826;-70
2023/03/20 12:26:57;;;;;;;9.60;6.87;;;;;;;;;;5092422;28;20819;-66
2023/03/20 12:29:26;;;;;;;11.23;7.33;;;;;;;;;;5092070;28;20454;-66
2023/03/20 12:31:56;;;;;;;7.20;6.20;;;;;;;;;;5092140;28;20998;-65
2023/03/20 12:34:25;;;;;;;14.97;12.43;;;;;;;;;;5092263;28;20448;-68
2023/03/20 12:36:53;;;;;;;16.53;11.90;;;;;;;;;;5092351;28;21016;-73
2023/03/20 12:39:22;;;;;;;7.87;6.90;;;;;;;;;;5092137;28;20462;-72
2023/03/20 12:41:55;;;;;;;8.40;6.43;;;;;;;;;;5095382;28;20516;-75
2023/03/20 12:44:33;;;;;;;9.00;7.43;;;;;;;;;;5095679;28;20538;-72
2023/03/20 12:47:06;;;;;;;9.70;7.57;;;;;;;;;;5096070;28;20810;-69
2023/03/20 12:49:38;;;;;;;6.90;6.20;;;;;;;;;;5095977;28;20486;-69
2023/03/20 12:52:10;;;;;;;10.17;7.50;;;;;;;;;;5095702;28;20946;-68
2023/03/20 12:54:44;;;;;;;9.60;7.00;;;;;;;;;;5095705;28;20449;-65
2023/03/20 12:57:17;;;;;;;7.70;6.87;;;;;;;;;;5095451;28;20474;-69
2023/03/20 12:59:51;;;;;;;9.17;6.97;;;;;;;;;;5095615;28;20473;-71
2023/03/20 13:02:34;;;;;;;7.00;6.30;;;;;;;;;;5095438;28;20481;-77
2023/03/20 13:05:09;;;;;;;7.10;6.20;;;;;;;;;;5095546;28;20497;-81
2023/03/20 13:07:43;;;;;;;8.70;6.57;;;;;;;;;;5095211;28;20547;-75
2023/03/20 13:10:17;;;;;;;11.93;7.97;;;;;;;;;;5095385;28;20533;-64
2023/03/20 13:12:48;;;;;;;10.60;7.47;;;;;;;;;;5095442;28;20542;-64
2023/03/20 13:15:22;;;;;;;7.37;6.50;;;;;;;;;;5095069;28;20448;-65
2023/03/20 13:17:51;;;;;;;9.17;6.93;;;;;;;;;;5095231;28;20476;-68
2023/03/20 13:20:21;;;;;;;7.93;7.00;;;;;;;;;;5094993;28;20444;-77
2023/03/20 13:22:54;;;;;;;7.20;6.50;;;;;;;;;;5095248;28;20444;-65
2023/03/20 13:25:28;;;;;;;10.73;8.13;;;;;;;;;;5095066;28;20538;-65
2023/03/20 13:27:56;;;;;;;9.67;7.97;;;;;;;;;;5095019;28;20520;-65
2023/03/20 13:30:27;;;;;;;9.20;7.00;;;;;;;;;;5094689;28;20459;-65
2023/03/20 13:32:57;;;;;;;8.77;7.10;;;;;;;;;;5095077;28;20455;-66
2023/03/20 13:35:40;;;;;;;9.90;7.27;;;;;;;;;;5095059;28;20857;-66
2023/03/20 13:38:10;;;;;;;9.90;7.77;;;;;;;;;;5095001;28;20452;-65
2023/03/20 13:40:42;;;;;;;9.53;7.60;;;;;;;;;;5094754;28;20520;-66
2023/03/20 13:43:14;;;;;;;11.20;7.70;;;;;;;;;;5095038;28;20533;-65
2023/03/20 13:45:43;;;;;;;9.43;7.60;;;;;;;;;;5094751;28;20806;-65
2023/03/20 13:48:19;;;;;;;8.10;7.30;;;;;;;;;;5094480;28;20479;-64
2023/03/20 13:50:50;;;;;;;8.70;7.70;;;;;;;;;;5094126;28;20451;-65
2023/03/20 13:53:23;;;;;;;12.93;8.20;;;;;;;;;;5094475;28;20534;-65
2023/03/20 13:55:53;;;;;;;9.97;7.60;;;;;;;;;;5094540;28;20474;-65
2023/03/20 13:58:29;;;;;;;8.70;7.50;;;;;;;;;;5094475;28;20457;-65
2023/03/20 14:00:59;;;;;;;14.20;7.93;;;;;;;;;;5094295;28;20447;-66
2023/03/20 14:03:27;;;;;;;12.73;8.23;;;;;;;;;;5094232;28;20447;-65
2023/03/20 14:05:54;;;;;;;10.60;8.30;;;;;;;;;;5093992;28;20456;-65
2023/03/20 14:08:31;;;;;;;11.30;7.93;;;;;;;;;;5094082;28;20450;-65
2023/03/20 14:11:06;;;;;;;9.20;7.87;;;;;;;;;;5094072;28;20934;-65
2023/03/20 14:13:33;;;;;;;8.97;7.30;;;;;;;;;;5094476;28;20558;-66
2023/03/20 14:16:02;;;;;;;10.47;7.90;;;;;;;;;;5093912;28;20457;-66
2023/03/20 14:18:30;;;;;;;11.73;8.97;;;;;;;;;;5093841;28;20481;-66
2023/03/20 14:20:59;;;;;;;8.63;7.23;;;;;;;;;;5093993;28;20522;-66
2023/03/20 14:23:33;;;;;;;9.90;7.77;;;;;;;;;;5093920;28;20447;-66
2023/03/20 14:26:00;;;;;;;12.50;8.20;;;;;;;;;;5093959;28;20472;-66
2023/03/20 14:28:30;;;;;;;10.13;8.50;;;;;;;;;;5093729;28;20798;-66
2023/03/20 14:33:59;;;;;;;12.03;8.60;;;;;;;;;;5131116;27;20508;-67
2023/03/20 14:36:28;;;;;;;10.47;8.43;;;;;;;;;;5110515;28;20441;-67
2023/03/20 14:39:00;;;;;;;9.77;7.80;;;;;;;;;;5110452;28;20538;-67
2023/03/20 14:41:29;;;;;;;10.40;8.70;;;;;;;;;;5110440;28;20450;-67
2023/03/20 14:44:00;;;;;;;10.27;8.50;;;;;;;;;;5110502;28;20930;-67
2023/03/20 14:46:31;;;;;;;14.30;11.10;;;;;;;;;;5110379;28;20473;-67
2023/03/20 14:49:02;;;;;;;13.20;8.67;;;;;;;;;;5110376;28;20729;-67